Create Custom Reports and Graphics: Custom Report

Stanford Met Tower

Current Conditions

2/26/20 8:00 AM (-08:00)
Updated Every 15 Minutes
Temp 46.2 °F   1.7
RH 77 %   13
Dew Pt 39.3 °F   3.0
Wind Dir SSW | 210 °
Wind Spd 3.9 mph   1.7
Wind Gust 6.3 mph   0.5
Solar Rad 38 W/m2   0
Daily Min Temp 39.0 °F   0.2
Daily Max Temp 47.3 °F   1.9
Daily Max Wind 8.8 mph   2.0
Daily Rain 0.00 In
Min Temp Yest 38.8 °F
Max Temp Yest 75.9 °F
Max Wind Yest 11.8 mph
Rain Yest 0.00 In
Seasonal Rainfall 4.39 In

Last 48 Hours

Stanford Met Tower

Hourly Data | America/Los_Angeles
as of 2/26/20 8:01 AM PST
Date & Time Temp (°F) Temp Inversion (°F) RH (%) Dew Pt (°F) Wind Dir (°) Wind Spd (mph) Wind Gust (mph) Latest Rain (In) ETo Hr (in) ETo 2pm (In) Daily Rain (In) Daily Min Temp (°F) Daily Max Temp (°F)
2/26/20 - 0800 47.3 3.1 76 40.1 SSW | 204 5.5 7.8 0.00 0.000 0.10 0.00 39.0 47.3
2/26/20 - 0700 40.3 3.2 86 36.6 SSW | 202 4.8 7.6 0.00 0.000 0.10 0.00 39.0 46.6
2/26/20 - 0600 41.7 2.8 83 36.9 SW | 226 3.8 5.6 0.00 0.000 0.10 0.00 39.5 46.6
2/26/20 - 0500 40.0 3.4 87 36.5 WSW | 240 3.0 5.0 0.00 0.000 0.10 0.00 39.6 46.6
2/26/20 - 0400 42.4 5.1 79 36.5 SW | 225 3.9 5.4 0.00 0.000 0.10 0.00 40.2 46.6
2/26/20 - 0300 42.0 3.5 82 36.8 SSW | 203 5.7 8.6 0.00 0.000 0.10 0.00 41.7 46.6
2/26/20 - 0200 43.0 1.8 80 37.2 SSW | 204 5.0 8.8 0.00 0.000 0.10 0.00 42.3 46.6
2/26/20 - 0100 44.4 4.6 76 37.2 SSW | 213 5.1 8.6 0.00 0.000 0.10 0.00 42.7 46.6
2/26/20 - 0000 45.0 4.9 75 37.4 SSW | 206 4.6 7.9 0.00 0.000 0.10 0.00 38.8 75.9
2/25/20 - 2300 46.6 4.5 73 38.5 SSW | 193 3.9 7.9 0.00 0.000 0.10 0.00 38.8 75.9
2/25/20 - 2200 50.8 2.7 61 37.9 SSW | 206 6.0 10.2 0.00 0.000 0.10 0.00 38.8 75.9
2/25/20 - 2100 52.5 2.1 60 38.8 SSW | 206 5.7 8.8 0.00 0.000 0.10 0.00 38.8 75.9
2/25/20 - 2000 53.9 1.8 60 40.2 SSW | 206 4.6 7.5 0.00 0.000 0.10 0.00 38.8 75.9
2/25/20 - 1900 57.0 5.6 55 40.9 SSE | 157 3.0 6.9 0.00 0.000 0.10 0.00 38.8 75.9
2/25/20 - 1800 67.6 4.8 31 36.3 N | 1 3.6 6.5 0.00 0.000 0.10 0.00 38.8 75.9
2/25/20 - 1700 73.3 0.2 21 31.3 NNE | 24 4.6 11.1 0.00 0.003 0.10 0.00 38.8 75.9
2/25/20 - 1600 74.6 -2.7 21 32.6 NE | 46 4.0 10.6 0.00 0.008 0.10 0.00 38.8 75.9
2/25/20 - 1500 74.8 -3.4 19 30.5 N | 8 4.1 10.0 0.00 0.013 0.10 0.00 38.8 75.1
2/25/20 - 1400 74.0 -5.9 23 33.6 NNE | 29 4.7 11.8 0.00 0.015 0.10 0.00 38.8 74.8
2/25/20 - 1300 73.5 -5.3 21 30.8 NNE | 21 4.9 11.2 0.00 0.016 0.09 0.00 38.8 74.0
2/25/20 - 1200 71.4 -2.7 19 27.3 E | 85 2.2 6.6 0.00 0.016 0.09 0.00 38.8 72.2
2/25/20 - 1100 69.4 -3.7 20 26.8 ESE | 113 4.1 8.3 0.00 0.013 0.09 0.00 38.8 70.2
2/25/20 - 1000 66.7 -2.3 24 28.8 ESE | 105 4.0 7.9 0.00 0.009 0.09 0.00 38.8 66.9
2/25/20 - 0900 62.1 0.7 32 32.2 SSE | 156 3.4 6.8 0.00 0.004 0.09 0.00 38.8 62.5
2/25/20 - 0800 48.9 2.2 62 36.6 SSW | 192 7.4 10.8 0.00 0.000 0.09 0.00 38.8 49.2
2/25/20 - 0700 42.7 2.9 76 35.7 SSW | 206 6.5 10.1 0.00 0.000 0.09 0.00 38.8 44.4
2/25/20 - 0600 41.4 3.6 80 35.8 SSW | 210 5.1 9.6 0.00 0.000 0.09 0.00 38.8 44.4
2/25/20 - 0500 39.0 4.5 87 35.4 SSW | 196 5.9 8.3 0.00 0.000 0.09 0.00 38.9 44.4
2/25/20 - 0400 40.2 6.3 84 35.9 SSW | 201 4.9 8.7 0.00 0.000 0.09 0.00 38.9 44.4
2/25/20 - 0300 39.2 3.4 86 35.2 SW | 226 4.4 6.8 0.00 0.000 0.09 0.00 39.0 44.4
2/25/20 - 0200 40.7 4.6 82 35.6 SW | 215 4.6 8.1 0.00 0.000 0.09 0.00 39.3 44.4
2/25/20 - 0100 40.3 3.9 83 35.7 SSW | 196 4.0 6.0 0.00 0.000 0.09 0.00 40.3 44.4
2/25/20 - 0000 43.4 4.7 73 35.3 SSW | 201 5.2 8.2 0.00 0.000 0.09 0.00 37.6 71.5
2/24/20 - 2300 42.7 3.0 78 36.2 SSW | 201 3.7 6.4 0.00 0.000 0.09 0.00 37.6 71.5
2/24/20 - 2200 46.3 3.5 68 36.2 SSW | 204 4.8 8.4 0.00 0.000 0.09 0.00 37.6 71.5
2/24/20 - 2100 46.2 3.4 72 37.7 S | 190 4.0 7.7 0.00 0.000 0.09 0.00 37.6 71.5
2/24/20 - 2000 50.8 1.6 63 38.6 SSW | 212 2.2 5.5 0.00 0.000 0.09 0.00 37.6 71.5
2/24/20 - 1900 52.0 5.0 64 40.4 WSW | 255 2.3 6.0 0.00 0.000 0.09 0.00 37.6 71.5
2/24/20 - 1800 62.7 4.4 40 38.2 WNW | 300 3.1 10.4 0.00 0.000 0.09 0.00 37.6 71.5
2/24/20 - 1700 70.9 0.6 26 34.0 WNW | 303 4.4 8.6 0.00 0.003 0.09 0.00 37.6 71.5
2/24/20 - 1600 70.4 -2.6 29 36.5 NNW | 338 4.8 12.1 0.00 0.008 0.09 0.00 37.6 71.0
2/24/20 - 1500 69.4 -4.4 30 37.0 NNW | 337 6.1 11.4 0.00 0.012 0.09 0.00 37.6 69.8
2/24/20 - 1400 67.4 -4.2 33 37.5 NNW | 327 6.8 15.0 0.00 0.015 0.09 0.00 37.6 67.8
2/24/20 - 1300 65.3 -4.9 41 41.2 NNW | 340 4.1 12.1 0.00 0.016 0.07 0.00 37.6 66.1
2/24/20 - 1200 63.3 -4.6 56 47.2 N | 358 2.5 8.2 0.00 0.015 0.07 0.00 37.6 63.9
2/24/20 - 1100 59.7 -5.2 67 48.6 NNW | 331 2.8 8.9 0.00 0.012 0.07 0.00 37.6 60.9
2/24/20 - 1000 57.5 -3.1 68 47.1 NW | 311 1.8 5.8 0.00 0.008 0.07 0.00 37.6 58.6
2/24/20 - 0900 52.9 0.4 82 47.5 WNW | 295 2.1 5.3 0.00 0.004 0.07 0.00 37.6 53.5
2/24/20 - 0800 44.8 1.5 96 43.8 SSW | 206 5.1 8.2 0.00 0.000 0.07 0.00 37.6 45.2
Max 74.8 6.3 96 48.6 - 7.4 15.0 0.00 0.016 0.10 0.00 42.7 75.9
Avg 54.1 1.2 59 37.0 - 4.3 8.4 0.00 0.004 0.09 - - -
Min 39.0 -5.9 19 26.8 - 1.8 5.0 0.00 0.000 0.07 0.00 37.6 44.4
Total - - - - - - - 0.00 0.190 - - - -
Calm: 0.0%
Calm: 0.0%